createdAt,value
2023-11-18T00:02:49.366Z,-0.60
2023-11-18T00:05:57.929Z,-0.80
2023-11-18T00:09:07.518Z,-0.80
2023-11-18T00:12:16.224Z,-0.90
2023-11-18T00:15:26.695Z,-1.00
2023-11-18T00:18:35.639Z,-1.00
2023-11-18T00:21:45.240Z,-1.10
2023-11-18T00:24:54.240Z,-1.10
2023-11-18T00:28:02.925Z,-1.10
2023-11-18T00:31:13.462Z,-1.10
2023-11-18T00:34:22.685Z,-1.20
2023-11-18T00:37:31.265Z,-1.20
2023-11-18T00:40:39.720Z,-1.20
2023-11-18T00:43:48.186Z,-1.20
2023-11-18T00:46:58.906Z,-1.20
2023-11-18T00:50:09.601Z,-1.20
2023-11-18T00:53:18.389Z,-1.30
2023-11-18T00:56:27.078Z,-1.30
2023-11-18T00:59:35.639Z,-1.30
2023-11-18T01:02:45.862Z,-1.20
2023-11-18T01:05:54.293Z,-1.20
2023-11-18T01:09:03.421Z,-1.10
2023-11-18T01:12:12.018Z,-1.00
2023-11-18T01:15:20.637Z,-0.90
2023-11-18T01:18:31.736Z,-0.90
2023-11-18T01:21:40.213Z,-0.80
2023-11-18T01:24:49.045Z,-0.90
2023-11-18T01:27:57.530Z,-0.90
2023-11-18T01:31:08.583Z,-0.90
2023-11-18T01:34:19.862Z,-0.90
2023-11-18T01:37:28.430Z,-0.90
2023-11-18T01:40:37.193Z,-0.90
2023-11-18T01:43:48.641Z,-0.80
2023-11-18T01:46:57.224Z,-0.80
2023-11-18T01:50:09.958Z,-0.70
2023-11-18T01:53:18.606Z,-0.70
2023-11-18T01:56:27.311Z,-0.60
2023-11-18T01:59:36.350Z,-0.60
2023-11-18T02:02:46.083Z,-0.60
2023-11-18T02:05:56.253Z,-0.50
2023-11-18T02:09:05.390Z,-0.50
2023-11-18T02:12:26.988Z,-0.40
2023-11-18T02:15:37.784Z,-0.40
2023-11-18T02:18:47.717Z,-0.40
2023-11-18T02:21:59.220Z,-0.40
2023-11-18T02:25:11.486Z,-0.40
2023-11-18T02:28:21.800Z,-0.40
2023-11-18T02:31:38.764Z,-0.40
2023-11-18T02:34:56.707Z,-0.40
2023-11-18T02:38:08.848Z,-0.40
2023-11-18T02:41:19.699Z,-0.40
2023-11-18T02:44:33.207Z,-0.40
2023-11-18T02:47:42.487Z,-0.40
2023-11-18T02:50:50.953Z,-0.40
2023-11-18T02:53:59.490Z,-0.40
2023-11-18T02:57:09.703Z,-0.40
2023-11-18T03:00:23.257Z,-0.40
2023-11-18T03:03:31.987Z,-0.40
2023-11-18T03:06:41.771Z,-0.40
2023-11-18T03:09:50.263Z,-0.40
2023-11-18T03:12:58.799Z,-0.50
2023-11-18T03:16:12.693Z,-0.40
2023-11-18T03:19:21.402Z,-0.50
2023-11-18T03:22:29.882Z,-0.50
2023-11-18T03:25:39.130Z,-0.50
2023-11-18T03:28:47.801Z,-0.50
2023-11-18T03:31:58.615Z,-0.50
2023-11-18T03:35:10.698Z,-0.50
2023-11-18T03:38:19.524Z,-0.50
2023-11-18T03:41:27.923Z,-0.50
2023-11-18T03:44:37.027Z,-0.60
2023-11-18T03:47:48.187Z,-0.40
2023-11-18T03:50:56.729Z,-0.40
2023-11-18T03:54:05.597Z,-0.40
2023-11-18T03:57:14.121Z,-0.40
2023-11-18T04:00:22.939Z,-0.40
2023-11-18T04:03:33.026Z,-0.50
2023-11-18T04:06:41.516Z,-0.60
2023-11-18T04:09:50.052Z,-0.60
2023-11-18T04:12:58.544Z,-0.50
2023-11-18T04:16:07.933Z,-0.50
2023-11-18T04:19:18.300Z,-0.50
2023-11-18T04:22:26.923Z,-0.50
2023-11-18T04:25:35.823Z,-0.50
2023-11-18T04:28:45.071Z,-0.60
2023-11-18T04:31:54.758Z,-0.70
2023-11-18T04:35:08.327Z,-0.70
2023-11-18T04:38:17.017Z,-0.70
2023-11-18T04:41:25.582Z,-0.70
2023-11-18T04:44:34.005Z,-0.70
2023-11-18T04:47:44.229Z,-0.80
2023-11-18T04:50:54.398Z,-0.70
2023-11-18T04:54:04.825Z,-0.80
2023-11-18T04:57:13.360Z,-0.80
2023-11-18T05:00:21.838Z,-0.90
2023-11-18T05:03:31.664Z,-0.90
2023-11-18T05:06:41.647Z,-0.80
2023-11-18T05:09:50.025Z,-0.70
2023-11-18T05:12:58.529Z,-0.80
2023-11-18T05:16:08.152Z,-0.80
2023-11-18T05:19:17.856Z,-0.80
2023-11-18T05:22:27.684Z,-0.80
2023-11-18T05:25:36.073Z,-0.80
2023-11-18T05:28:46.330Z,-0.80
2023-11-18T05:31:55.938Z,-0.70
2023-11-18T05:35:06.143Z,-0.80
2023-11-18T05:38:17.605Z,-0.90
2023-11-18T05:41:31.292Z,-0.90
2023-11-18T05:44:40.677Z,-0.90
2023-11-18T05:47:49.075Z,-0.90
2023-11-18T05:50:57.510Z,-0.90
2023-11-18T05:54:07.813Z,-0.90
2023-11-18T05:57:17.492Z,-0.90
2023-11-18T06:00:33.162Z,-0.80
2023-11-18T06:03:45.586Z,-0.70
2023-11-18T06:06:54.388Z,-0.80
2023-11-18T06:10:06.559Z,-0.70
2023-11-18T06:13:15.113Z,-0.70
2023-11-18T06:16:25.509Z,-0.80
2023-11-18T06:19:34.302Z,-0.80
2023-11-18T06:22:42.801Z,-0.70
2023-11-18T06:25:52.878Z,-0.70
2023-11-18T06:29:01.421Z,-0.80
2023-11-18T06:32:10.036Z,-0.80
2023-11-18T06:35:18.472Z,-0.80
2023-11-18T06:38:26.889Z,-0.80
2023-11-18T06:41:39.276Z,-0.70
2023-11-18T06:44:50.328Z,-0.80
2023-11-18T06:48:00.020Z,-0.70
2023-11-18T06:51:09.173Z,-0.70
2023-11-18T06:54:17.613Z,-0.70
2023-11-18T06:57:27.428Z,-0.70
2023-11-18T07:00:37.812Z,-0.70
2023-11-18T07:03:49.749Z,-0.70
2023-11-18T07:06:58.260Z,-0.70
2023-11-18T07:10:08.488Z,-0.60
2023-11-18T07:13:18.752Z,-0.60
2023-11-18T07:16:27.770Z,-0.60
2023-11-18T07:19:36.663Z,-0.50
2023-11-18T07:22:45.330Z,-0.40
2023-11-18T07:25:54.856Z,-0.30
2023-11-18T07:29:05.167Z,-0.30
2023-11-18T07:32:15.105Z,-0.40
2023-11-18T07:35:24.071Z,-0.40
2023-11-18T07:38:33.395Z,-0.30
2023-11-18T07:41:42.089Z,-0.20
2023-11-18T07:44:55.956Z,-0.20
2023-11-18T07:48:07.613Z,-0.10
2023-11-18T07:51:16.125Z,-0.10
2023-11-18T07:54:24.895Z,0.00
2023-11-18T07:57:37.244Z,0.00
2023-11-18T08:00:47.298Z,0.00
2023-11-18T08:03:56.025Z,0.00
2023-11-18T08:07:06.488Z,0.00
2023-11-18T08:10:20.493Z,0.00
2023-11-18T08:13:29.426Z,0.00
2023-11-18T08:16:39.616Z,0.10
2023-11-18T08:19:48.638Z,0.10
2023-11-18T08:22:57.541Z,0.10
2023-11-18T08:26:07.382Z,0.10
2023-11-18T08:29:16.377Z,0.20
2023-11-18T08:32:28.243Z,0.20
2023-11-18T08:35:55.789Z,0.30
2023-11-18T08:39:11.635Z,0.30
2023-11-18T08:42:23.581Z,0.40
2023-11-18T08:45:34.288Z,0.40
2023-11-18T08:48:45.939Z,0.40
2023-11-18T08:51:57.783Z,0.50
2023-11-18T08:55:21.496Z,0.50
2023-11-18T08:58:34.969Z,0.50
2023-11-18T09:01:47.785Z,0.50
2023-11-18T09:04:59.551Z,0.60
2023-11-18T09:08:12.567Z,0.60
2023-11-18T09:11:24.879Z,0.60
2023-11-18T09:14:35.040Z,0.60
2023-11-18T09:17:45.844Z,0.60
2023-11-18T09:20:57.789Z,0.70
2023-11-18T09:24:12.287Z,0.70
2023-11-18T09:27:20.796Z,0.70
2023-11-18T09:30:30.754Z,0.80
2023-11-18T09:33:46.346Z,0.80
2023-11-18T09:36:57.837Z,0.90
2023-11-18T09:40:13.697Z,0.90
2023-11-18T09:43:23.165Z,0.90
2023-11-18T09:46:34.631Z,1.00
2023-11-18T09:49:47.611Z,1.00
2023-11-18T09:53:04.222Z,1.00
2023-11-18T09:56:27.605Z,1.00
2023-11-18T09:59:46.165Z,1.10
2023-11-18T10:02:57.673Z,1.10
2023-11-18T10:06:08.488Z,1.20
2023-11-18T10:09:20.331Z,1.30
2023-11-18T10:12:30.966Z,1.40
2023-11-18T10:15:40.890Z,1.50
2023-11-18T10:18:53.182Z,1.60
2023-11-18T10:22:04.336Z,1.60
2023-11-18T10:25:26.786Z,1.70
2023-11-18T10:28:39.237Z,2.20
2023-11-18T10:31:48.003Z,2.40
2023-11-18T10:34:58.046Z,2.60
2023-11-18T10:38:07.086Z,2.80
2023-11-18T10:41:18.060Z,3.00
2023-11-18T10:44:27.136Z,2.90
2023-11-18T10:47:37.049Z,3.00
2023-11-18T10:50:49.103Z,3.00
2023-11-18T10:54:00.016Z,3.00
2023-11-18T10:57:11.644Z,3.10
2023-11-18T11:00:20.654Z,3.20
2023-11-18T11:03:34.496Z,3.30
2023-11-18T11:06:44.884Z,3.20
2023-11-18T11:09:57.703Z,3.20
2023-11-18T11:13:09.609Z,3.40
2023-11-18T11:16:21.782Z,3.50
2023-11-18T11:19:45.796Z,3.60
2023-11-18T11:23:09.409Z,3.60
2023-11-18T11:26:31.121Z,3.80
2023-11-18T11:29:53.282Z,3.80
2023-11-18T11:33:21.519Z,3.80
2023-11-18T11:36:36.273Z,3.90
2023-11-18T11:39:48.105Z,3.80
2023-11-18T11:42:57.220Z,3.50
2023-11-18T11:46:11.916Z,3.40
2023-11-18T11:49:22.297Z,3.20
2023-11-18T11:52:38.907Z,3.20
2023-11-18T11:55:53.129Z,3.20
2023-11-18T11:59:04.056Z,3.10
2023-11-18T12:02:17.729Z,3.00
2023-11-18T12:05:28.362Z,3.10
2023-11-18T12:08:39.769Z,3.00
2023-11-18T12:11:49.819Z,2.90
2023-11-18T12:15:07.320Z,2.90
2023-11-18T12:18:18.802Z,2.90
2023-11-18T12:21:57.881Z,2.80
2023-11-18T12:25:37.693Z,2.80
2023-11-18T12:28:48.107Z,2.80
2023-11-18T12:31:58.915Z,2.80
2023-11-18T12:35:18.310Z,2.80
2023-11-18T12:39:00.553Z,2.90
2023-11-18T12:42:16.380Z,3.00
2023-11-18T12:46:15.758Z,3.00
2023-11-18T12:49:25.930Z,3.10
2023-11-18T12:52:36.160Z,3.10
2023-11-18T12:55:45.013Z,3.20
2023-11-18T12:58:55.166Z,3.20
2023-11-18T13:02:05.828Z,3.20
2023-11-18T13:05:15.090Z,3.10
2023-11-18T13:08:25.585Z,3.10
2023-11-18T13:11:35.175Z,3.00
2023-11-18T13:14:44.584Z,2.90
2023-11-18T13:18:00.524Z,2.90
2023-11-18T13:21:12.160Z,2.90
2023-11-18T13:24:22.227Z,2.90
2023-11-18T13:27:33.772Z,2.90
2023-11-18T13:30:44.077Z,2.90
2023-11-18T13:33:54.574Z,2.80
2023-11-18T13:37:04.526Z,2.80
2023-11-18T13:40:15.093Z,2.80
2023-11-18T13:43:24.489Z,2.80
2023-11-18T13:46:33.861Z,2.80
2023-11-18T13:49:42.769Z,2.80
2023-11-18T13:52:52.209Z,2.80
2023-11-18T13:56:03.522Z,2.80
2023-11-18T13:59:12.677Z,2.70
2023-11-18T14:02:22.552Z,2.60
2023-11-18T14:05:31.334Z,2.60
2023-11-18T14:08:40.318Z,2.50
2023-11-18T14:11:50.685Z,2.50
2023-11-18T14:14:59.518Z,2.40
2023-11-18T14:18:09.041Z,2.30
2023-11-18T14:21:17.617Z,2.20
2023-11-18T14:24:28.860Z,2.10
2023-11-18T14:27:38.915Z,2.00
2023-11-18T14:30:47.800Z,1.90
2023-11-18T14:33:59.618Z,1.90
2023-11-18T14:37:08.586Z,1.80
2023-11-18T14:40:18.229Z,1.80
2023-11-18T14:43:29.253Z,1.70
2023-11-18T14:46:41.512Z,1.60
2023-11-18T14:49:50.918Z,1.50
2023-11-18T14:53:01.588Z,1.40
2023-11-18T14:56:11.102Z,1.40
2023-11-18T14:59:23.643Z,1.30
2023-11-18T15:02:32.333Z,1.20
2023-11-18T15:05:40.880Z,1.10
2023-11-18T15:08:49.376Z,1.10
2023-11-18T15:11:59.297Z,1.00
2023-11-18T15:15:18.193Z,1.00
2023-11-18T15:18:26.956Z,1.10
2023-11-18T15:21:35.814Z,1.10
2023-11-18T15:24:44.314Z,1.10
2023-11-18T15:27:53.152Z,1.10
2023-11-18T15:31:03.971Z,1.00
2023-11-18T15:34:13.011Z,1.00
2023-11-18T15:37:21.507Z,1.00
2023-11-18T15:40:30.244Z,0.90
2023-11-18T15:43:38.647Z,0.90
2023-11-18T15:46:51.850Z,0.90
2023-11-18T15:50:01.175Z,0.90
2023-11-18T15:53:10.149Z,0.80
2023-11-18T15:56:20.212Z,0.70
2023-11-18T15:59:28.812Z,0.70
2023-11-18T16:02:38.862Z,0.70
2023-11-18T16:05:47.586Z,0.70
2023-11-18T16:08:56.247Z,0.60
2023-11-18T16:12:05.589Z,0.60
2023-11-18T16:15:15.147Z,0.70
2023-11-18T16:18:25.423Z,0.70
2023-11-18T16:21:40.010Z,0.70
2023-11-18T16:24:52.167Z,0.60
2023-11-18T16:28:03.686Z,0.60
2023-11-18T16:31:12.584Z,0.50
2023-11-18T16:34:23.520Z,0.60
2023-11-18T16:37:32.070Z,0.50
2023-11-18T16:40:40.570Z,0.60
2023-11-18T16:43:49.161Z,0.60
2023-11-18T16:46:57.679Z,0.50
2023-11-18T16:50:09.492Z,0.50
2023-11-18T16:53:19.294Z,0.50
2023-11-18T16:56:28.702Z,0.50
2023-11-18T16:59:37.662Z,0.50
2023-11-18T17:02:46.657Z,0.50
2023-11-18T17:05:56.638Z,0.50
2023-11-18T17:09:06.816Z,0.50
2023-11-18T17:12:15.594Z,0.50
2023-11-18T17:15:24.420Z,0.50
2023-11-18T17:18:35.891Z,0.50
2023-11-18T17:21:45.867Z,0.40
2023-11-18T17:24:56.120Z,0.40
2023-11-18T17:28:05.799Z,0.40
2023-11-18T17:31:14.424Z,0.40
2023-11-18T17:34:22.927Z,0.40
2023-11-18T17:37:32.874Z,0.30
2023-11-18T17:40:42.246Z,0.30
2023-11-18T17:43:50.987Z,0.20
2023-11-18T17:46:59.635Z,0.10
2023-11-18T17:50:13.209Z,0.10
2023-11-18T17:53:24.557Z,0.10
2023-11-18T17:56:33.302Z,0.00
2023-11-18T17:59:41.925Z,0.00
2023-11-18T18:02:50.618Z,0.00
2023-11-18T18:05:59.237Z,0.00
2023-11-18T18:09:10.420Z,0.00
2023-11-18T18:12:19.089Z,0.00
2023-11-18T18:15:28.297Z,0.00
2023-11-18T18:18:36.831Z,-0.10
2023-11-18T18:21:46.802Z,-0.10
2023-11-18T18:24:56.829Z,-0.10
2023-11-18T18:28:05.597Z,-0.10
2023-11-18T18:31:14.085Z,-0.20
2023-11-18T18:34:22.598Z,-0.20
2023-11-18T18:37:31.132Z,-0.20
2023-11-18T18:40:41.076Z,-0.20
2023-11-18T18:43:49.655Z,-0.10
2023-11-18T18:46:58.093Z,-0.10
2023-11-18T18:50:08.612Z,-0.10
2023-11-18T18:53:18.759Z,-0.10
2023-11-18T18:56:30.156Z,-0.10
2023-11-18T18:59:38.771Z,-0.10
2023-11-18T19:02:51.602Z,-0.10
2023-11-18T19:06:00.263Z,-0.10
2023-11-18T19:09:10.452Z,0.00
2023-11-18T19:12:20.288Z,0.00
2023-11-18T19:15:28.888Z,0.00
2023-11-18T19:18:38.343Z,0.00
2023-11-18T19:21:51.826Z,0.00
2023-11-18T19:25:00.511Z,0.00
2023-11-18T19:28:12.389Z,0.00
2023-11-18T19:31:45.974Z,0.00
2023-11-18T19:34:54.552Z,0.00
2023-11-18T19:38:07.751Z,0.00
2023-11-18T19:41:16.346Z,0.00
2023-11-18T19:44:25.067Z,-0.10
2023-11-18T19:47:36.201Z,-0.10
2023-11-18T19:50:44.822Z,0.00
2023-11-18T19:53:53.361Z,-0.10
2023-11-18T19:57:01.957Z,-0.10
2023-11-18T20:00:13.137Z,-0.10
2023-11-18T20:03:25.089Z,-0.10
2023-11-18T20:06:33.646Z,-0.20
2023-11-18T20:09:43.045Z,-0.20
2023-11-18T20:12:51.829Z,-0.20
2023-11-18T20:16:00.329Z,-0.20
2023-11-18T20:19:12.307Z,-0.20
2023-11-18T20:22:22.175Z,-0.20
2023-11-18T20:25:31.796Z,-0.30
2023-11-18T20:28:40.519Z,-0.20
2023-11-18T20:31:50.323Z,-0.30
2023-11-18T20:35:01.359Z,-0.30
2023-11-18T20:38:13.483Z,-0.30
2023-11-18T20:41:23.742Z,-0.40
2023-11-18T20:44:38.526Z,-0.40
2023-11-18T20:47:50.184Z,-0.40
2023-11-18T20:51:00.443Z,-0.40
2023-11-18T20:54:09.064Z,-0.50
2023-11-18T20:57:17.466Z,-0.40
2023-11-18T21:00:26.210Z,-0.50
2023-11-18T21:03:34.996Z,-0.40
2023-11-18T21:06:45.035Z,-0.40
2023-11-18T21:09:56.502Z,-0.30
2023-11-18T21:13:08.582Z,-0.30
2023-11-18T21:16:17.765Z,-0.30
2023-11-18T21:19:27.863Z,-0.30
2023-11-18T21:22:37.881Z,-0.30
2023-11-18T21:25:46.297Z,-0.30
2023-11-18T21:28:55.232Z,-0.40
2023-11-18T21:32:04.127Z,-0.40
2023-11-18T21:35:15.990Z,-0.40
2023-11-18T21:38:26.460Z,-0.50
2023-11-18T21:41:36.925Z,-0.50
2023-11-18T21:44:45.446Z,-0.50
2023-11-18T21:47:56.172Z,-0.50
2023-11-18T21:51:05.950Z,-0.50
2023-11-18T21:54:15.881Z,-0.50
2023-11-18T21:57:24.410Z,-0.60
2023-11-18T22:00:33.098Z,-0.60
2023-11-18T22:03:43.341Z,-0.60
2023-11-18T22:06:54.449Z,-0.60
2023-11-18T22:10:05.468Z,-0.60
2023-11-18T22:13:14.119Z,-0.60
2023-11-18T22:16:22.690Z,-0.60
2023-11-18T22:19:31.177Z,-0.60
2023-11-18T22:22:39.687Z,-0.50
2023-11-18T22:25:52.051Z,-0.50
2023-11-18T22:29:00.634Z,-0.50
2023-11-18T22:32:11.401Z,-0.50
2023-11-18T22:35:21.644Z,-0.50
2023-11-18T22:38:30.361Z,-0.50
2023-11-18T22:41:41.757Z,-0.50
2023-11-18T22:44:50.598Z,-0.50
2023-11-18T22:47:59.226Z,-0.50
2023-11-18T22:51:08.256Z,-0.40
2023-11-18T22:54:18.677Z,-0.40
2023-11-18T22:57:28.691Z,-0.40
2023-11-18T23:00:51.562Z,-0.40
2023-11-18T23:04:00.480Z,-0.30
2023-11-18T23:07:09.085Z,-0.30
2023-11-18T23:10:18.208Z,-0.20
2023-11-18T23:13:28.079Z,-0.20
2023-11-18T23:16:36.635Z,-0.20
2023-11-18T23:19:50.104Z,-0.20
2023-11-18T23:23:01.163Z,-0.20
2023-11-18T23:26:09.626Z,-0.20
2023-11-18T23:29:19.480Z,-0.10
2023-11-18T23:32:27.876Z,-0.10
2023-11-18T23:35:36.463Z,-0.10
2023-11-18T23:38:44.932Z,-0.10
2023-11-18T23:41:53.671Z,0.00
2023-11-18T23:45:06.767Z,0.00
2023-11-18T23:48:16.912Z,0.00
2023-11-18T23:51:25.450Z,0.10
2023-11-18T23:54:34.081Z,0.10
2023-11-18T23:57:43.148Z,0.20
